createdAt,value
2019-06-01T00:00:21.650Z,73.38
2019-06-01T00:03:27.495Z,73.05
2019-06-01T00:06:32.355Z,73.76
2019-06-01T00:09:37.430Z,74.55
2019-06-01T00:12:43.271Z,73.78
2019-06-01T00:15:48.462Z,73.34
2019-06-01T00:18:53.547Z,75.19
2019-06-01T00:21:58.293Z,75.13
2019-06-01T00:25:03.202Z,75.26
2019-06-01T00:28:09.371Z,75.28
2019-06-01T00:31:14.127Z,76.32
2019-06-01T00:34:19.372Z,75.41
2019-06-01T00:37:24.361Z,75.53
2019-06-01T00:40:29.253Z,76.08
2019-06-01T00:43:35.065Z,77.85
2019-06-01T00:46:40.069Z,77.70
2019-06-01T00:49:44.909Z,77.62
2019-06-01T00:52:51.327Z,78.44
2019-06-01T00:55:56.217Z,78.22
2019-06-01T00:59:00.932Z,77.16
2019-06-01T01:02:05.830Z,78.90
2019-06-01T01:05:11.901Z,79.14
2019-06-01T01:08:16.724Z,79.18
2019-06-01T01:11:21.445Z,78.18
2019-06-01T01:14:26.506Z,79.04
2019-06-01T01:17:31.242Z,78.92
2019-06-01T01:20:37.029Z,79.49
2019-06-01T01:23:41.835Z,79.10
2019-06-01T01:26:46.897Z,78.08
2019-06-01T01:29:53.173Z,78.32
2019-06-01T01:32:59.440Z,78.55
2019-06-01T01:36:04.585Z,79.29
2019-06-01T01:39:09.973Z,79.93
2019-06-01T01:42:14.761Z,79.76
2019-06-01T01:45:19.629Z,79.36
2019-06-01T01:48:24.375Z,78.53
2019-06-01T01:51:29.098Z,79.67
2019-06-01T01:54:33.868Z,79.65
2019-06-01T01:57:39.678Z,80.24
2019-06-01T02:00:45.919Z,79.67
2019-06-01T02:03:51.665Z,80.32
2019-06-01T02:06:58.451Z,79.61
2019-06-01T02:10:03.630Z,80.27
2019-06-01T02:13:08.900Z,79.98
2019-06-01T02:16:15.323Z,79.97
2019-06-01T02:19:20.068Z,80.64
2019-06-01T02:22:25.119Z,80.45
2019-06-01T02:25:30.079Z,79.85
2019-06-01T02:28:34.886Z,79.92
2019-06-01T02:31:42.099Z,80.17
2019-06-01T02:34:46.058Z,81.05
2019-06-01T02:37:50.872Z,80.80
2019-06-01T02:40:57.007Z,81.29
2019-06-01T02:44:03.755Z,81.25
2019-06-01T02:47:08.577Z,80.37
2019-06-01T02:50:13.598Z,81.23
2019-06-01T02:53:18.389Z,81.82
2019-06-01T02:56:23.132Z,81.62
2019-06-01T02:59:27.853Z,81.79
2019-06-01T03:02:33.580Z,81.60
2019-06-01T03:05:39.202Z,82.06
2019-06-01T03:08:49.129Z,82.29
2019-06-01T03:11:55.720Z,81.95
2019-06-01T03:15:02.640Z,82.12
2019-06-01T03:18:09.457Z,82.44
2019-06-01T03:21:18.862Z,82.43
2019-06-01T03:24:25.855Z,82.58
2019-06-01T03:27:32.687Z,83.10
2019-06-01T03:30:45.204Z,83.62
2019-06-01T03:33:48.746Z,83.18
2019-06-01T03:36:56.292Z,83.76
2019-06-01T03:40:01.236Z,83.57
2019-06-01T03:43:07.256Z,83.79
2019-06-01T03:46:13.056Z,82.86
2019-06-01T03:49:17.859Z,82.45
2019-06-01T03:52:22.583Z,83.76
2019-06-01T03:55:27.350Z,84.32
2019-06-01T03:58:32.158Z,83.89
2019-06-01T04:01:36.914Z,83.89
2019-06-01T04:04:41.807Z,84.03
2019-06-01T04:07:46.822Z,82.92
2019-06-01T04:10:51.861Z,83.66
2019-06-01T04:13:56.625Z,84.35
2019-06-01T04:17:02.000Z,83.85
2019-06-01T04:20:08.243Z,82.46
2019-06-01T04:23:13.007Z,82.64
2019-06-01T04:26:18.112Z,81.94
2019-06-01T04:29:23.838Z,82.92
2019-06-01T04:32:28.707Z,82.38
2019-06-01T04:35:34.443Z,82.77
2019-06-01T04:38:39.539Z,83.50
2019-06-01T04:41:44.422Z,82.25
2019-06-01T04:44:49.246Z,83.42
2019-06-01T04:47:54.257Z,82.81
2019-06-01T04:50:59.245Z,82.78
2019-06-01T04:54:04.825Z,81.89
2019-06-01T04:57:11.011Z,81.97
2019-06-01T05:00:26.010Z,81.68
2019-06-01T05:03:22.927Z,81.29
2019-06-01T05:06:27.668Z,80.76
2019-06-01T05:09:32.679Z,80.74
2019-06-01T05:12:37.442Z,80.44
2019-06-01T05:15:42.454Z,79.94
2019-06-01T05:18:47.522Z,78.97
2019-06-01T05:21:52.250Z,78.41
2019-06-01T05:24:57.369Z,77.94
2019-06-01T05:28:02.237Z,77.60
2019-06-01T05:31:09.747Z,76.99
2019-06-01T05:34:14.116Z,76.41
2019-06-01T05:37:18.896Z,75.77
2019-06-01T05:40:23.748Z,74.88
2019-06-01T05:43:28.563Z,73.83
2019-06-01T05:46:33.363Z,73.28
2019-06-01T05:49:38.125Z,72.82
2019-06-01T05:52:42.909Z,72.62
2019-06-01T05:55:47.964Z,71.94
2019-06-01T05:58:53.541Z,70.92
2019-06-01T06:01:58.656Z,70.32
2019-06-01T06:05:03.658Z,69.93
2019-06-01T06:08:09.673Z,68.92
2019-06-01T06:11:14.943Z,68.83
2019-06-01T06:14:22.267Z,68.34
2019-06-01T06:17:26.974Z,67.22
2019-06-01T06:20:31.838Z,66.97
2019-06-01T06:23:36.665Z,66.15
2019-06-01T06:26:41.471Z,65.89
2019-06-01T06:29:46.455Z,66.29
2019-06-01T06:32:51.328Z,66.56
2019-06-01T06:35:57.290Z,66.20
2019-06-01T06:39:04.726Z,65.99
2019-06-01T06:42:09.019Z,65.88
2019-06-01T06:45:14.604Z,64.25
2019-06-01T06:48:21.180Z,64.70
2019-06-01T06:51:27.185Z,63.95
2019-06-01T06:54:32.893Z,63.62
2019-06-01T06:57:37.676Z,62.96
2019-06-01T07:00:42.473Z,63.18
2019-06-01T07:03:47.559Z,62.53
2019-06-01T07:06:52.345Z,62.92
2019-06-01T07:09:57.176Z,61.71
2019-06-01T07:13:02.591Z,61.50
2019-06-01T07:16:07.398Z,61.38
2019-06-01T07:19:12.201Z,61.52
2019-06-01T07:22:17.356Z,61.13
2019-06-01T07:25:22.555Z,59.04
2019-06-01T07:28:28.329Z,60.06
2019-06-01T07:31:33.143Z,60.17
2019-06-01T07:34:42.111Z,59.62
2019-06-01T07:37:44.750Z,60.08
2019-06-01T07:40:49.542Z,57.90
2019-06-01T07:43:54.346Z,58.88
2019-06-01T07:46:59.498Z,57.05
2019-06-01T07:50:05.052Z,58.06
2019-06-01T07:53:10.101Z,57.33
2019-06-01T07:56:14.978Z,56.13
2019-06-01T07:59:19.952Z,54.47
2019-06-01T08:02:26.244Z,55.81
2019-06-01T08:05:32.218Z,56.05
2019-06-01T08:08:37.123Z,54.82
2019-06-01T08:11:42.154Z,54.81
2019-06-01T08:14:46.983Z,54.96
2019-06-01T08:17:52.467Z,54.67
2019-06-01T08:20:57.661Z,54.87
2019-06-01T08:24:02.631Z,54.32
2019-06-01T08:27:07.555Z,52.92
2019-06-01T08:30:12.719Z,53.86
2019-06-01T08:33:17.561Z,53.76
2019-06-01T08:36:23.142Z,49.86
2019-06-01T08:39:29.464Z,50.69
2019-06-01T08:42:34.419Z,52.26
2019-06-01T08:45:39.294Z,52.53
2019-06-01T08:48:44.222Z,52.14
2019-06-01T08:51:49.083Z,51.67
2019-06-01T08:54:57.006Z,49.78
2019-06-01T08:58:01.851Z,48.83
2019-06-01T09:01:06.970Z,52.31
2019-06-01T09:04:11.889Z,52.07
2019-06-01T09:07:18.042Z,51.17
2019-06-01T09:10:22.892Z,52.41
2019-06-01T09:13:29.098Z,50.41
2019-06-01T09:16:35.937Z,51.61
2019-06-01T09:19:41.623Z,49.52
2019-06-01T09:22:48.151Z,49.07
2019-06-01T09:25:53.276Z,48.19
2019-06-01T09:28:58.424Z,48.51
2019-06-01T09:32:10.603Z,47.71
2019-06-01T09:35:12.645Z,45.69
2019-06-01T09:38:17.529Z,42.06
2019-06-01T09:41:22.709Z,41.82
2019-06-01T09:44:28.862Z,43.34
2019-06-01T09:47:34.007Z,43.86
2019-06-01T09:50:39.089Z,45.67
2019-06-01T09:53:43.862Z,44.63
2019-06-01T09:56:48.667Z,44.19
2019-06-01T09:59:53.450Z,42.41
2019-06-01T10:02:58.327Z,41.88
2019-06-01T10:06:03.345Z,41.50
2019-06-01T10:09:09.706Z,42.17
2019-06-01T10:12:14.611Z,43.83
2019-06-01T10:15:19.428Z,44.05
2019-06-01T10:18:26.903Z,41.38
2019-06-01T10:21:32.058Z,42.34
2019-06-01T10:24:37.315Z,42.16
2019-06-01T10:27:42.864Z,42.59
2019-06-01T10:30:48.748Z,41.48
2019-06-01T10:33:53.510Z,41.43
2019-06-01T10:36:58.297Z,40.26
2019-06-01T10:40:03.354Z,41.11
2019-06-01T10:43:08.578Z,40.90
2019-06-01T10:46:13.643Z,40.44
2019-06-01T10:49:18.898Z,42.01
2019-06-01T10:52:23.634Z,40.97
2019-06-01T10:55:28.469Z,40.06
2019-06-01T10:58:34.578Z,40.17
2019-06-01T11:01:40.922Z,38.35
2019-06-01T11:04:45.784Z,39.30
2019-06-01T11:07:50.596Z,39.38
2019-06-01T11:10:55.689Z,40.63
2019-06-01T11:14:01.874Z,40.29
2019-06-01T11:17:06.709Z,38.27
2019-06-01T11:20:12.185Z,38.51
2019-06-01T11:23:17.009Z,37.77
2019-06-01T11:26:22.080Z,37.70
2019-06-01T11:29:27.790Z,39.34
2019-06-01T11:32:33.673Z,37.10
2019-06-01T11:35:39.217Z,35.84
2019-06-01T11:38:44.869Z,36.34
2019-06-01T11:41:51.286Z,37.26
2019-06-01T11:44:56.405Z,37.60
2019-06-01T11:48:01.935Z,37.43
2019-06-01T11:51:06.820Z,36.41
2019-06-01T11:54:11.898Z,36.99
2019-06-01T11:57:17.064Z,37.83
2019-06-01T12:00:22.359Z,37.30
2019-06-01T12:03:27.109Z,36.29
2019-06-01T12:06:31.849Z,36.98
2019-06-01T12:09:37.717Z,36.58
2019-06-01T12:12:42.574Z,36.63
2019-06-01T12:15:47.692Z,37.61
2019-06-01T12:18:52.493Z,36.42
2019-06-01T12:21:57.680Z,37.29
2019-06-01T12:25:02.981Z,35.56
2019-06-01T12:28:07.985Z,37.03
2019-06-01T12:31:12.913Z,36.03
2019-06-01T12:34:17.972Z,35.52
2019-06-01T12:37:39.974Z,35.41
2019-06-01T12:40:29.937Z,35.42
2019-06-01T12:43:35.403Z,34.44
2019-06-01T12:46:41.618Z,35.90
2019-06-01T12:49:46.776Z,35.94
2019-06-01T12:52:52.638Z,34.41
2019-06-01T12:55:57.480Z,34.63
2019-06-01T12:59:02.270Z,34.47
2019-06-01T13:02:07.104Z,34.79
2019-06-01T13:05:12.823Z,34.53
2019-06-01T13:08:17.606Z,34.77
2019-06-01T13:11:22.337Z,34.65
2019-06-01T13:14:27.169Z,33.50
2019-06-01T13:17:31.974Z,35.00
2019-06-01T13:20:37.416Z,34.37
2019-06-01T13:23:43.414Z,33.65
2019-06-01T13:26:48.127Z,32.75
2019-06-01T13:29:55.359Z,33.71
2019-06-01T13:33:00.478Z,33.77
2019-06-01T13:36:05.382Z,32.42
2019-06-01T13:39:10.158Z,31.76
2019-06-01T13:42:15.520Z,31.09
2019-06-01T13:45:21.395Z,30.77
2019-06-01T13:48:26.171Z,30.76
2019-06-01T13:51:31.298Z,31.05
2019-06-01T13:54:40.020Z,31.38
2019-06-01T13:57:44.165Z,30.71
2019-06-01T14:00:49.193Z,31.80
2019-06-01T14:03:55.665Z,31.88
2019-06-01T14:07:00.583Z,32.52
2019-06-01T14:10:06.295Z,31.90
2019-06-01T14:13:11.446Z,31.25
2019-06-01T14:16:16.281Z,30.64
2019-06-01T14:19:21.042Z,30.04
2019-06-01T14:22:25.827Z,30.39
2019-06-01T14:25:30.541Z,30.27
2019-06-01T14:28:35.857Z,30.43
2019-06-01T14:31:40.690Z,30.15
2019-06-01T14:34:46.313Z,28.89
2019-06-01T14:37:52.011Z,29.84
2019-06-01T14:40:58.221Z,28.86
2019-06-01T14:44:03.071Z,30.12
2019-06-01T14:47:07.844Z,29.49
2019-06-01T14:50:12.852Z,29.32
2019-06-01T14:53:17.890Z,29.22
2019-06-01T14:56:22.622Z,29.73
2019-06-01T14:59:27.391Z,29.32
2019-06-01T15:02:32.297Z,29.83
2019-06-01T15:05:37.023Z,28.90
2019-06-01T15:08:42.317Z,28.69
2019-06-01T15:11:48.924Z,28.32
2019-06-01T15:14:55.472Z,29.16
2019-06-01T15:18:04.800Z,28.65
2019-06-01T15:21:07.528Z,27.41
2019-06-01T15:24:12.293Z,27.95
2019-06-01T15:27:17.197Z,27.83
2019-06-01T15:30:22.632Z,28.41
2019-06-01T15:33:28.105Z,28.37
2019-06-01T15:36:33.925Z,27.89
2019-06-01T15:39:38.980Z,27.15
2019-06-01T15:42:44.048Z,26.73
2019-06-01T15:45:49.213Z,27.68
2019-06-01T15:48:55.999Z,27.03
2019-06-01T15:52:02.052Z,27.46
2019-06-01T15:55:08.483Z,28.08
2019-06-01T15:58:13.827Z,27.58
2019-06-01T16:01:18.594Z,26.61
2019-06-01T16:04:23.413Z,26.52
2019-06-01T16:07:28.772Z,26.90
2019-06-01T16:10:33.562Z,26.52
2019-06-01T16:13:38.659Z,26.54
2019-06-01T16:16:43.772Z,26.90
2019-06-01T16:19:49.098Z,26.54
2019-06-01T16:22:55.930Z,27.04
2019-06-01T16:26:12.151Z,27.17
2019-06-01T16:29:08.215Z,26.62
2019-06-01T16:32:13.343Z,26.88
2019-06-01T16:35:18.473Z,26.07
2019-06-01T16:38:23.267Z,26.23
2019-06-01T16:41:28.115Z,26.07
2019-06-01T16:44:32.916Z,26.31
2019-06-01T16:47:38.243Z,26.77
2019-06-01T16:50:43.206Z,26.44
2019-06-01T16:53:48.076Z,26.94
2019-06-01T16:56:53.197Z,27.06
2019-06-01T16:59:58.450Z,26.53
2019-06-01T17:03:05.098Z,27.42
2019-06-01T17:06:11.220Z,27.11
2019-06-01T17:09:16.807Z,27.93
2019-06-01T17:12:21.576Z,28.34
2019-06-01T17:15:26.478Z,27.80
2019-06-01T17:18:31.395Z,27.76
2019-06-01T17:21:36.260Z,28.13
2019-06-01T17:24:41.243Z,28.59
2019-06-01T17:27:45.972Z,28.99
2019-06-01T17:30:51.353Z,27.92
2019-06-01T17:33:56.417Z,28.68
2019-06-01T17:37:01.219Z,28.87
2019-06-01T17:40:08.316Z,29.01
2019-06-01T17:43:13.650Z,29.82
2019-06-01T17:46:18.551Z,29.55
2019-06-01T17:49:23.785Z,29.79
2019-06-01T17:52:28.872Z,30.81
2019-06-01T17:55:35.730Z,30.79
2019-06-01T17:58:40.676Z,30.61
2019-06-01T18:01:46.469Z,30.22
2019-06-01T18:04:51.416Z,30.75
2019-06-01T18:07:56.328Z,31.28
2019-06-01T18:11:01.937Z,31.23
2019-06-01T18:14:08.769Z,31.26
2019-06-01T18:17:13.696Z,31.77
2019-06-01T18:20:18.942Z,31.76
2019-06-01T18:23:23.823Z,32.26
2019-06-01T18:26:28.745Z,32.56
2019-06-01T18:29:38.807Z,32.96
2019-06-01T18:32:41.858Z,33.05
2019-06-01T18:35:47.010Z,33.55
2019-06-01T18:38:52.122Z,33.76
2019-06-01T18:41:56.989Z,33.77
2019-06-01T18:45:01.913Z,34.27
2019-06-01T18:48:08.180Z,34.42
2019-06-01T18:51:14.456Z,34.93
2019-06-01T18:54:19.525Z,35.54
2019-06-01T18:57:24.348Z,35.96
2019-06-01T19:00:29.652Z,36.34
2019-06-01T19:03:34.524Z,36.68
2019-06-01T19:06:39.860Z,36.86
2019-06-01T19:09:44.719Z,37.33
2019-06-01T19:12:49.562Z,38.13
2019-06-01T19:15:54.405Z,38.03
2019-06-01T19:18:59.237Z,38.27
2019-06-01T19:22:04.157Z,38.95
2019-06-01T19:25:11.169Z,39.37
2019-06-01T19:28:17.506Z,39.23
2019-06-01T19:31:22.523Z,40.20
2019-06-01T19:34:27.466Z,40.99
2019-06-01T19:37:33.244Z,42.93
2019-06-01T19:40:39.462Z,43.87
2019-06-01T19:43:45.479Z,45.23
2019-06-01T19:46:51.945Z,46.18
2019-06-01T19:49:57.152Z,46.39
2019-06-01T19:53:03.230Z,47.14
2019-06-01T19:56:08.817Z,47.36
2019-06-01T19:59:13.893Z,48.21
2019-06-01T20:02:29.556Z,48.53
2019-06-01T20:05:26.247Z,48.82
2019-06-01T20:08:31.638Z,49.32
2019-06-01T20:11:36.453Z,50.26
2019-06-01T20:14:41.530Z,51.00
2019-06-01T20:17:46.398Z,50.87
2019-06-01T20:20:51.348Z,50.75
2019-06-01T20:23:56.427Z,51.62
2019-06-01T20:27:01.481Z,52.05
2019-06-01T20:30:07.309Z,52.34
2019-06-01T20:33:14.075Z,52.55
2019-06-01T20:36:20.236Z,52.70
2019-06-01T20:39:25.344Z,52.38
2019-06-01T20:42:32.856Z,53.19
2019-06-01T20:45:38.809Z,52.65
2019-06-01T20:48:44.752Z,52.45
2019-06-01T20:51:50.018Z,52.48
2019-06-01T20:54:55.110Z,52.32
2019-06-01T20:58:00.106Z,53.53
2019-06-01T21:01:05.114Z,52.25
2019-06-01T21:04:10.161Z,50.97
2019-06-01T21:07:15.748Z,51.59
2019-06-01T21:10:22.352Z,51.28
2019-06-01T21:13:27.475Z,52.34
2019-06-01T21:16:32.397Z,52.23
2019-06-01T21:19:37.601Z,52.29
2019-06-01T21:22:42.581Z,52.38
2019-06-01T21:25:47.640Z,51.75
2019-06-01T21:28:52.665Z,52.45
2019-06-01T21:31:57.757Z,52.53
2019-06-01T21:35:03.693Z,52.23
2019-06-01T21:38:08.455Z,51.67
2019-06-01T21:41:13.298Z,53.24
2019-06-01T21:44:18.138Z,53.21
2019-06-01T21:47:23.832Z,53.21
2019-06-01T21:50:28.725Z,53.92
2019-06-01T21:53:33.488Z,53.90
2019-06-01T21:56:38.307Z,54.64
2019-06-01T21:59:43.063Z,54.65
2019-06-01T22:02:47.950Z,53.76
2019-06-01T22:05:52.833Z,53.42
2019-06-01T22:08:57.699Z,53.52
2019-06-01T22:12:03.049Z,55.40
2019-06-01T22:15:07.980Z,55.45
2019-06-01T22:18:12.831Z,55.48
2019-06-01T22:21:17.700Z,54.69
2019-06-01T22:24:23.843Z,55.61
2019-06-01T22:27:29.300Z,55.20
2019-06-01T22:30:34.544Z,56.18
2019-06-01T22:33:39.371Z,56.33
2019-06-01T22:36:44.179Z,55.34
2019-06-01T22:39:49.058Z,56.73
2019-06-01T22:42:54.224Z,55.82
2019-06-01T22:46:00.674Z,57.02
2019-06-01T22:49:06.665Z,57.39
2019-06-01T22:52:11.510Z,56.78
2019-06-01T22:55:16.854Z,56.55
2019-06-01T22:58:23.204Z,56.74
2019-06-01T23:01:28.801Z,57.13
2019-06-01T23:04:33.864Z,57.05
2019-06-01T23:07:39.699Z,57.77
2019-06-01T23:10:44.845Z,57.05
2019-06-01T23:13:53.308Z,57.55
2019-06-01T23:16:56.188Z,57.47
2019-06-01T23:20:01.274Z,57.08
2019-06-01T23:23:06.370Z,57.19
2019-06-01T23:26:11.427Z,57.50
2019-06-01T23:29:16.482Z,58.18
2019-06-01T23:32:22.388Z,58.18
2019-06-01T23:35:28.602Z,59.35
2019-06-01T23:38:33.527Z,59.63
2019-06-01T23:41:38.555Z,58.39
2019-06-01T23:44:43.304Z,59.26
2019-06-01T23:47:48.058Z,58.98
2019-06-01T23:50:52.820Z,59.50
2019-06-01T23:53:57.937Z,59.44
2019-06-01T23:57:02.710Z,59.81
